sensor_id;sensor_type;location;lat;lon;timestamp;temperature;humidity
9816;DHT22;4947;44.526;11.360;2023-03-20T00:00:27;10.60;99.90
9816;DHT22;4947;44.526;11.360;2023-03-20T00:02:55;10.60;99.90
9816;DHT22;4947;44.526;11.360;2023-03-20T00:05:26;10.50;99.90
9816;DHT22;4947;44.526;11.360;2023-03-20T00:07:55;10.50;99.90
9816;DHT22;4947;44.526;11.360;2023-03-20T00:10:25;10.60;99.90
9816;DHT22;4947;44.526;11.360;2023-03-20T00:12:55;10.50;99.90
9816;DHT22;4947;44.526;11.360;2023-03-20T00:15:26;10.50;99.90
9816;DHT22;4947;44.526;11.360;2023-03-20T00:17:54;10.50;99.90
9816;DHT22;4947;44.526;11.360;2023-03-20T00:20:22;10.50;99.90
9816;DHT22;4947;44.526;11.360;2023-03-20T00:22:50;10.40;99.90
9816;DHT22;4947;44.526;11.360;2023-03-20T00:25:19;10.40;99.90
9816;DHT22;4947;44.526;11.360;2023-03-20T00:27:47;10.40;99.90
9816;DHT22;4947;44.526;11.360;2023-03-20T00:30:22;10.40;99.90
9816;DHT22;4947;44.526;11.360;2023-03-20T00:32:51;10.40;99.90
9816;DHT22;4947;44.526;11.360;2023-03-20T00:35:22;10.40;99.90
9816;DHT22;4947;44.526;11.360;2023-03-20T00:37:51;10.30;99.90
9816;DHT22;4947;44.526;11.360;2023-03-20T00:40:19;10.30;99.90
9816;DHT22;4947;44.526;11.360;2023-03-20T00:42:49;10.40;99.90
9816;DHT22;4947;44.526;11.360;2023-03-20T00:45:19;10.40;99.90
9816;DHT22;4947;44.526;11.360;2023-03-20T00:47:49;10.40;99.90
9816;DHT22;4947;44.526;11.360;2023-03-20T00:50:19;10.40;99.90
9816;DHT22;4947;44.526;11.360;2023-03-20T00:52:48;10.40;99.90
9816;DHT22;4947;44.526;11.360;2023-03-20T00:55:16;10.30;99.90
9816;DHT22;4947;44.526;11.360;2023-03-20T00:57:47;10.30;99.90
9816;DHT22;4947;44.526;11.360;2023-03-20T01:00:23;10.30;99.90
9816;DHT22;4947;44.526;11.360;2023-03-20T01:02:56;10.30;99.90
9816;DHT22;4947;44.526;11.360;2023-03-20T01:05:25;10.30;99.90
9816;DHT22;4947;44.526;11.360;2023-03-20T01:07:53;10.30;99.90
9816;DHT22;4947;44.526;11.360;2023-03-20T01:10:23;10.30;99.90
9816;DHT22;4947;44.526;11.360;2023-03-20T01:13:00;10.40;99.90
9816;DHT22;4947;44.526;11.360;2023-03-20T01:15:32;10.30;99.90
9816;DHT22;4947;44.526;11.360;2023-03-20T01:18:00;10.40;99.90
9816;DHT22;4947;44.526;11.360;2023-03-20T01:20:30;10.40;99.90
9816;DHT22;4947;44.526;11.360;2023-03-20T01:22:57;10.40;99.90
9816;DHT22;4947;44.526;11.360;2023-03-20T01:25:25;10.40;99.90
9816;DHT22;4947;44.526;11.360;2023-03-20T01:27:54;10.40;99.90
9816;DHT22;4947;44.526;11.360;2023-03-20T01:30:24;10.40;99.90
9816;DHT22;4947;44.526;11.360;2023-03-20T01:32:54;10.30;99.90
9816;DHT22;4947;44.526;11.360;2023-03-20T01:35:27;10.30;99.90
9816;DHT22;4947;44.526;11.360;2023-03-20T01:37:54;10.30;99.90
9816;DHT22;4947;44.526;11.360;2023-03-20T01:40:30;10.40;99.90
9816;DHT22;4947;44.526;11.360;2023-03-20T01:43:00;10.40;99.90
9816;DHT22;4947;44.526;11.360;2023-03-20T01:45:33;10.40;99.90
9816;DHT22;4947;44.526;11.360;2023-03-20T01:48:12;10.40;99.90
9816;DHT22;4947;44.526;11.360;2023-03-20T01:50:40;10.40;99.90
9816;DHT22;4947;44.526;11.360;2023-03-20T01:53:14;10.40;99.90
9816;DHT22;4947;44.526;11.360;2023-03-20T01:55:44;10.40;99.90
9816;DHT22;4947;44.526;11.360;2023-03-20T01:58:16;10.40;99.90
9816;DHT22;4947;44.526;11.360;2023-03-20T02:00:45;10.40;99.90
9816;DHT22;4947;44.526;11.360;2023-03-20T02:03:16;10.40;99.90
9816;DHT22;4947;44.526;11.360;2023-03-20T02:05:44;10.50;99.90
9816;DHT22;4947;44.526;11.360;2023-03-20T02:08:19;10.50;99.90
9816;DHT22;4947;44.526;11.360;2023-03-20T02:10:49;10.40;99.90
9816;DHT22;4947;44.526;11.360;2023-03-20T02:13:17;10.40;99.90
9816;DHT22;4947;44.526;11.360;2023-03-20T02:15:57;10.40;99.90
9816;DHT22;4947;44.526;11.360;2023-03-20T02:18:26;10.40;99.90
9816;DHT22;4947;44.526;11.360;2023-03-20T02:24:26;10.30;99.90
9816;DHT22;4947;44.526;11.360;2023-03-20T02:27:05;10.40;99.90
9816;DHT22;4947;44.526;11.360;2023-03-20T02:32:57;10.30;99.90
9816;DHT22;4947;44.526;11.360;2023-03-20T02:38:59;10.30;99.90
9816;DHT22;4947;44.526;11.360;2023-03-20T02:41:35;10.30;99.90
9816;DHT22;4947;44.526;11.360;2023-03-20T02:44:10;10.30;99.90
9816;DHT22;4947;44.526;11.360;2023-03-20T02:46:45;10.30;99.90
9816;DHT22;4947;44.526;11.360;2023-03-20T02:49:22;10.30;99.90
9816;DHT22;4947;44.526;11.360;2023-03-20T02:51:59;10.30;99.90
9816;DHT22;4947;44.526;11.360;2023-03-20T02:54:35;10.30;99.90
9816;DHT22;4947;44.526;11.360;2023-03-20T02:57:08;10.30;99.90
9816;DHT22;4947;44.526;11.360;2023-03-20T02:59:43;10.30;99.90
9816;DHT22;4947;44.526;11.360;2023-03-20T03:02:15;10.30;99.90
9816;DHT22;4947;44.526;11.360;2023-03-20T03:04:49;10.30;99.90
9816;DHT22;4947;44.526;11.360;2023-03-20T03:07:19;10.30;99.90
9816;DHT22;4947;44.526;11.360;2023-03-20T03:09:52;10.30;99.90
9816;DHT22;4947;44.526;11.360;2023-03-20T03:12:22;10.30;99.90
9816;DHT22;4947;44.526;11.360;2023-03-20T03:14:53;10.30;99.90
9816;DHT22;4947;44.526;11.360;2023-03-20T03:17:24;10.30;99.90
9816;DHT22;4947;44.526;11.360;2023-03-20T03:19:56;10.30;99.90
9816;DHT22;4947;44.526;11.360;2023-03-20T03:22:25;10.30;99.90
9816;DHT22;4947;44.526;11.360;2023-03-20T03:24:54;10.30;99.90
9816;DHT22;4947;44.526;11.360;2023-03-20T03:27:23;10.20;99.90
9816;DHT22;4947;44.526;11.360;2023-03-20T03:29:54;10.20;99.90
9816;DHT22;4947;44.526;11.360;2023-03-20T03:32:26;10.30;99.90
9816;DHT22;4947;44.526;11.360;2023-03-20T03:34:54;10.20;99.90
9816;DHT22;4947;44.526;11.360;2023-03-20T03:37:36;10.30;99.90
9816;DHT22;4947;44.526;11.360;2023-03-20T03:40:15;10.20;99.90
9816;DHT22;4947;44.526;11.360;2023-03-20T03:42:50;10.20;99.90
9816;DHT22;4947;44.526;11.360;2023-03-20T03:45:25;10.30;99.90
9816;DHT22;4947;44.526;11.360;2023-03-20T03:47:59;10.30;99.90
9816;DHT22;4947;44.526;11.360;2023-03-20T03:50:30;10.30;99.90
9816;DHT22;4947;44.526;11.360;2023-03-20T03:53:05;10.30;99.90
9816;DHT22;4947;44.526;11.360;2023-03-20T03:55:38;10.30;99.90
9816;DHT22;4947;44.526;11.360;2023-03-20T03:58:09;10.30;99.90
9816;DHT22;4947;44.526;11.360;2023-03-20T04:00:40;10.30;99.90
9816;DHT22;4947;44.526;11.360;2023-03-20T04:03:12;10.30;99.90
9816;DHT22;4947;44.526;11.360;2023-03-20T04:05:44;10.20;99.90
9816;DHT22;4947;44.526;11.360;2023-03-20T04:08:13;10.20;99.90
9816;DHT22;4947;44.526;11.360;2023-03-20T04:10:43;10.20;99.90
9816;DHT22;4947;44.526;11.360;2023-03-20T04:13:10;10.20;99.90
9816;DHT22;4947;44.526;11.360;2023-03-20T04:15:38;10.20;99.90
9816;DHT22;4947;44.526;11.360;2023-03-20T04:18:05;10.10;99.90
9816;DHT22;4947;44.526;11.360;2023-03-20T04:20:35;10.20;99.90
9816;DHT22;4947;44.526;11.360;2023-03-20T04:23:02;10.20;99.90
9816;DHT22;4947;44.526;11.360;2023-03-20T04:25:30;10.20;99.90
9816;DHT22;4947;44.526;11.360;2023-03-20T04:27:58;10.20;99.90
9816;DHT22;4947;44.526;11.360;2023-03-20T04:30:26;10.20;99.90
9816;DHT22;4947;44.526;11.360;2023-03-20T04:32:54;10.20;99.90
9816;DHT22;4947;44.526;11.360;2023-03-20T04:35:21;10.20;99.90
9816;DHT22;4947;44.526;11.360;2023-03-20T04:37:49;10.20;99.90
9816;DHT22;4947;44.526;11.360;2023-03-20T04:40:16;10.20;99.90
9816;DHT22;4947;44.526;11.360;2023-03-20T04:42:45;10.20;99.90
9816;DHT22;4947;44.526;11.360;2023-03-20T04:45:14;10.20;99.90
9816;DHT22;4947;44.526;11.360;2023-03-20T04:47:41;10.10;99.90
9816;DHT22;4947;44.526;11.360;2023-03-20T04:50:10;10.10;99.90
9816;DHT22;4947;44.526;11.360;2023-03-20T04:52:38;10.10;99.90
9816;DHT22;4947;44.526;11.360;2023-03-20T04:55:06;10.10;99.90
9816;DHT22;4947;44.526;11.360;2023-03-20T04:57:34;10.10;99.90
9816;DHT22;4947;44.526;11.360;2023-03-20T05:00:01;10.10;99.90
9816;DHT22;4947;44.526;11.360;2023-03-20T05:02:31;10.10;99.90
9816;DHT22;4947;44.526;11.360;2023-03-20T05:04:59;10.10;99.90
9816;DHT22;4947;44.526;11.360;2023-03-20T05:07:27;10.10;99.90
9816;DHT22;4947;44.526;11.360;2023-03-20T05:09:54;10.20;99.90
9816;DHT22;4947;44.526;11.360;2023-03-20T05:12:21;10.20;99.90
9816;DHT22;4947;44.526;11.360;2023-03-20T05:14:49;10.20;99.90
9816;DHT22;4947;44.526;11.360;2023-03-20T05:17:17;10.20;99.90
9816;DHT22;4947;44.526;11.360;2023-03-20T05:19:46;10.20;99.90
9816;DHT22;4947;44.526;11.360;2023-03-20T05:22:14;10.20;99.90
9816;DHT22;4947;44.526;11.360;2023-03-20T05:24:43;10.20;99.90
9816;DHT22;4947;44.526;11.360;2023-03-20T05:27:11;10.20;99.90
9816;DHT22;4947;44.526;11.360;2023-03-20T05:29:39;10.30;99.90
9816;DHT22;4947;44.526;11.360;2023-03-20T05:32:09;10.30;99.90
9816;DHT22;4947;44.526;11.360;2023-03-20T05:34:37;10.30;99.90
9816;DHT22;4947;44.526;11.360;2023-03-20T05:37:07;10.30;99.90
9816;DHT22;4947;44.526;11.360;2023-03-20T05:39:34;10.30;99.90
9816;DHT22;4947;44.526;11.360;2023-03-20T05:42:02;10.20;99.90
9816;DHT22;4947;44.526;11.360;2023-03-20T05:44:29;10.20;99.90
9816;DHT22;4947;44.526;11.360;2023-03-20T05:46:57;10.20;99.90
9816;DHT22;4947;44.526;11.360;2023-03-20T05:49:24;10.10;99.90
9816;DHT22;4947;44.526;11.360;2023-03-20T05:51:52;10.10;99.90
9816;DHT22;4947;44.526;11.360;2023-03-20T05:54:21;10.10;99.90
9816;DHT22;4947;44.526;11.360;2023-03-20T05:56:48;10.10;99.90
9816;DHT22;4947;44.526;11.360;2023-03-20T05:59:15;10.20;99.90
9816;DHT22;4947;44.526;11.360;2023-03-20T06:01:45;10.10;99.90
9816;DHT22;4947;44.526;11.360;2023-03-20T06:04:13;10.10;99.90
9816;DHT22;4947;44.526;11.360;2023-03-20T06:06:40;10.10;99.90
9816;DHT22;4947;44.526;11.360;2023-03-20T06:09:08;10.10;99.90
9816;DHT22;4947;44.526;11.360;2023-03-20T06:11:37;10.10;99.90
9816;DHT22;4947;44.526;11.360;2023-03-20T06:14:05;10.00;99.90
9816;DHT22;4947;44.526;11.360;2023-03-20T06:16:32;10.10;99.90
9816;DHT22;4947;44.526;11.360;2023-03-20T06:19:00;10.10;99.90
9816;DHT22;4947;44.526;11.360;2023-03-20T06:21:27;10.20;99.90
9816;DHT22;4947;44.526;11.360;2023-03-20T06:23:55;10.20;99.90
9816;DHT22;4947;44.526;11.360;2023-03-20T06:26:24;10.20;99.90
9816;DHT22;4947;44.526;11.360;2023-03-20T06:28:53;10.20;99.90
9816;DHT22;4947;44.526;11.360;2023-03-20T06:31:21;10.20;99.90
9816;DHT22;4947;44.526;11.360;2023-03-20T06:33:49;10.20;99.90
9816;DHT22;4947;44.526;11.360;2023-03-20T06:36:17;10.20;99.90
9816;DHT22;4947;44.526;11.360;2023-03-20T06:38:45;10.20;99.90
9816;DHT22;4947;44.526;11.360;2023-03-20T06:41:13;10.30;99.90
9816;DHT22;4947;44.526;11.360;2023-03-20T06:43:40;10.20;99.90
9816;DHT22;4947;44.526;11.360;2023-03-20T06:46:10;10.20;99.90
9816;DHT22;4947;44.526;11.360;2023-03-20T06:48:38;10.20;99.90
9816;DHT22;4947;44.526;11.360;2023-03-20T06:51:05;10.20;99.90
9816;DHT22;4947;44.526;11.360;2023-03-20T06:53:33;10.20;99.90
9816;DHT22;4947;44.526;11.360;2023-03-20T06:56:01;10.20;99.90
9816;DHT22;4947;44.526;11.360;2023-03-20T06:58:28;10.20;99.90
9816;DHT22;4947;44.526;11.360;2023-03-20T07:00:55;10.20;99.90
9816;DHT22;4947;44.526;11.360;2023-03-20T07:03:24;10.30;99.90
9816;DHT22;4947;44.526;11.360;2023-03-20T07:05:51;10.30;99.90
9816;DHT22;4947;44.526;11.360;2023-03-20T07:08:19;10.30;99.90
9816;DHT22;4947;44.526;11.360;2023-03-20T07:10:46;10.30;99.90
9816;DHT22;4947;44.526;11.360;2023-03-20T07:13:14;10.30;99.90
9816;DHT22;4947;44.526;11.360;2023-03-20T07:15:42;10.30;99.90
9816;DHT22;4947;44.526;11.360;2023-03-20T07:18:10;10.30;99.90
9816;DHT22;4947;44.526;11.360;2023-03-20T07:20:39;10.30;99.90
9816;DHT22;4947;44.526;11.360;2023-03-20T07:23:07;10.40;99.90
9816;DHT22;4947;44.526;11.360;2023-03-20T07:25:34;10.40;99.90
9816;DHT22;4947;44.526;11.360;2023-03-20T07:28:02;10.50;99.90
9816;DHT22;4947;44.526;11.360;2023-03-20T07:30:31;10.50;99.90
9816;DHT22;4947;44.526;11.360;2023-03-20T07:32:58;10.40;99.90
9816;DHT22;4947;44.526;11.360;2023-03-20T07:35:25;10.40;99.90
9816;DHT22;4947;44.526;11.360;2023-03-20T07:37:55;10.40;99.90
9816;DHT22;4947;44.526;11.360;2023-03-20T07:40:22;10.50;99.90
9816;DHT22;4947;44.526;11.360;2023-03-20T07:42:50;10.50;99.90
9816;DHT22;4947;44.526;11.360;2023-03-20T07:45:17;10.50;99.90
9816;DHT22;4947;44.526;11.360;2023-03-20T07:47:44;10.40;99.90
9816;DHT22;4947;44.526;11.360;2023-03-20T07:50:16;10.40;99.90
9816;DHT22;4947;44.526;11.360;2023-03-20T07:52:45;10.40;99.90
9816;DHT22;4947;44.526;11.360;2023-03-20T07:55:15;10.40;99.90
9816;DHT22;4947;44.526;11.360;2023-03-20T07:57:43;10.40;99.90
9816;DHT22;4947;44.526;11.360;2023-03-20T08:00:11;10.40;99.90
9816;DHT22;4947;44.526;11.360;2023-03-20T08:02:39;10.40;99.90
9816;DHT22;4947;44.526;11.360;2023-03-20T08:05:07;10.40;99.90
9816;DHT22;4947;44.526;11.360;2023-03-20T08:07:34;10.30;99.90
9816;DHT22;4947;44.526;11.360;2023-03-20T08:10:05;10.30;99.90
9816;DHT22;4947;44.526;11.360;2023-03-20T08:12:34;10.30;99.90
9816;DHT22;4947;44.526;11.360;2023-03-20T08:15:02;10.30;99.90
9816;DHT22;4947;44.526;11.360;2023-03-20T08:17:30;10.30;99.90
9816;DHT22;4947;44.526;11.360;2023-03-20T08:19:57;10.30;99.90
9816;DHT22;4947;44.526;11.360;2023-03-20T08:22:25;10.30;99.90
9816;DHT22;4947;44.526;11.360;2023-03-20T08:24:52;10.30;99.90
9816;DHT22;4947;44.526;11.360;2023-03-20T08:27:20;10.40;99.90
9816;DHT22;4947;44.526;11.360;2023-03-20T08:29:49;10.40;99.90
9816;DHT22;4947;44.526;11.360;2023-03-20T08:32:17;10.40;99.90
9816;DHT22;4947;44.526;11.360;2023-03-20T08:34:45;10.40;99.90
9816;DHT22;4947;44.526;11.360;2023-03-20T08:37:12;10.50;99.90
9816;DHT22;4947;44.526;11.360;2023-03-20T08:39:40;10.40;99.90
9816;DHT22;4947;44.526;11.360;2023-03-20T08:42:07;10.50;99.90
9816;DHT22;4947;44.526;11.360;2023-03-20T08:44:37;10.40;99.90
9816;DHT22;4947;44.526;11.360;2023-03-20T08:47:06;10.40;99.90
9816;DHT22;4947;44.526;11.360;2023-03-20T08:49:35;10.40;99.90
9816;DHT22;4947;44.526;11.360;2023-03-20T08:52:03;10.50;99.90
9816;DHT22;4947;44.526;11.360;2023-03-20T08:54:31;10.50;99.90
9816;DHT22;4947;44.526;11.360;2023-03-20T08:56:58;10.50;99.90
9816;DHT22;4947;44.526;11.360;2023-03-20T08:59:25;10.50;99.90
9816;DHT22;4947;44.526;11.360;2023-03-20T09:01:53;10.50;99.90
9816;DHT22;4947;44.526;11.360;2023-03-20T09:04:22;10.50;99.90
9816;DHT22;4947;44.526;11.360;2023-03-20T09:06:50;10.50;99.90
9816;DHT22;4947;44.526;11.360;2023-03-20T09:09:17;10.60;99.90
9816;DHT22;4947;44.526;11.360;2023-03-20T09:11:46;10.60;99.90
9816;DHT22;4947;44.526;11.360;2023-03-20T09:14:13;10.70;99.90
9816;DHT22;4947;44.526;11.360;2023-03-20T09:16:41;10.80;99.90
9816;DHT22;4947;44.526;11.360;2023-03-20T09:19:09;10.90;99.90
9816;DHT22;4947;44.526;11.360;2023-03-20T09:21:38;10.90;99.90
9816;DHT22;4947;44.526;11.360;2023-03-20T09:24:06;11.00;99.90
9816;DHT22;4947;44.526;11.360;2023-03-20T09:26:34;10.90;99.90
9816;DHT22;4947;44.526;11.360;2023-03-20T09:29:02;11.00;99.90
9816;DHT22;4947;44.526;11.360;2023-03-20T09:31:29;10.90;99.90
9816;DHT22;4947;44.526;11.360;2023-03-20T09:33:57;11.00;99.90
9816;DHT22;4947;44.526;11.360;2023-03-20T09:36:24;11.00;99.90
9816;DHT22;4947;44.526;11.360;2023-03-20T09:38:53;11.00;99.90
9816;DHT22;4947;44.526;11.360;2023-03-20T09:41:22;11.10;99.90
9816;DHT22;4947;44.526;11.360;2023-03-20T09:44:00;11.10;99.90
9816;DHT22;4947;44.526;11.360;2023-03-20T09:46:51;11.30;99.90
9816;DHT22;4947;44.526;11.360;2023-03-20T09:49:33;11.30;99.90
9816;DHT22;4947;44.526;11.360;2023-03-20T09:52:13;11.40;99.90
9816;DHT22;4947;44.526;11.360;2023-03-20T09:54:46;11.50;99.90
9816;DHT22;4947;44.526;11.360;2023-03-20T09:57:19;11.40;99.90
9816;DHT22;4947;44.526;11.360;2023-03-20T09:59:51;11.30;99.90
9816;DHT22;4947;44.526;11.360;2023-03-20T10:02:24;11.40;99.90
9816;DHT22;4947;44.526;11.360;2023-03-20T10:04:56;11.30;99.90
9816;DHT22;4947;44.526;11.360;2023-03-20T10:07:24;11.30;99.90
9816;DHT22;4947;44.526;11.360;2023-03-20T10:09:53;11.30;99.90
9816;DHT22;4947;44.526;11.360;2023-03-20T10:12:35;11.30;99.90
9816;DHT22;4947;44.526;11.360;2023-03-20T10:15:15;11.20;99.90
9816;DHT22;4947;44.526;11.360;2023-03-20T10:17:50;11.20;99.90
9816;DHT22;4947;44.526;11.360;2023-03-20T10:20:26;11.20;99.90
9816;DHT22;4947;44.526;11.360;2023-03-20T10:22:57;11.20;99.90
9816;DHT22;4947;44.526;11.360;2023-03-20T10:25:30;11.40;99.90
9816;DHT22;4947;44.526;11.360;2023-03-20T10:28:00;11.40;99.90
9816;DHT22;4947;44.526;11.360;2023-03-20T10:30:47;11.50;99.90
9816;DHT22;4947;44.526;11.360;2023-03-20T10:33:26;11.60;99.90
9816;DHT22;4947;44.526;11.360;2023-03-20T10:36:07;11.60;99.90
9816;DHT22;4947;44.526;11.360;2023-03-20T10:38:41;11.60;99.90
9816;DHT22;4947;44.526;11.360;2023-03-20T10:41:15;11.50;99.90
9816;DHT22;4947;44.526;11.360;2023-03-20T10:43:45;11.50;99.90
9816;DHT22;4947;44.526;11.360;2023-03-20T10:46:15;11.60;99.90
9816;DHT22;4947;44.526;11.360;2023-03-20T10:48:45;11.60;99.90
9816;DHT22;4947;44.526;11.360;2023-03-20T10:51:16;11.60;99.90
9816;DHT22;4947;44.526;11.360;2023-03-20T10:53:46;11.70;99.90
9816;DHT22;4947;44.526;11.360;2023-03-20T10:56:23;11.80;99.90
9816;DHT22;4947;44.526;11.360;2023-03-20T10:58:56;12.00;99.90
9816;DHT22;4947;44.526;11.360;2023-03-20T11:01:25;12.10;99.90
9816;DHT22;4947;44.526;11.360;2023-03-20T11:03:53;12.20;99.90
9816;DHT22;4947;44.526;11.360;2023-03-20T11:06:23;12.10;99.90
9816;DHT22;4947;44.526;11.360;2023-03-20T11:08:53;12.10;99.90
9816;DHT22;4947;44.526;11.360;2023-03-20T11:11:23;12.10;99.90
9816;DHT22;4947;44.526;11.360;2023-03-20T11:13:51;12.20;99.90
9816;DHT22;4947;44.526;11.360;2023-03-20T11:16:21;12.30;99.90
9816;DHT22;4947;44.526;11.360;2023-03-20T11:18:50;12.30;99.90
9816;DHT22;4947;44.526;11.360;2023-03-20T11:21:21;12.20;99.90
9816;DHT22;4947;44.526;11.360;2023-03-20T11:23:49;12.40;99.90
9816;DHT22;4947;44.526;11.360;2023-03-20T11:26:19;12.40;99.90
9816;DHT22;4947;44.526;11.360;2023-03-20T11:28:58;12.40;99.90
9816;DHT22;4947;44.526;11.360;2023-03-20T11:31:30;12.50;99.90
9816;DHT22;4947;44.526;11.360;2023-03-20T11:34:09;12.50;99.90
9816;DHT22;4947;44.526;11.360;2023-03-20T11:36:38;12.50;99.90
9816;DHT22;4947;44.526;11.360;2023-03-20T11:39:11;12.50;99.90
9816;DHT22;4947;44.526;11.360;2023-03-20T11:41:47;12.50;99.90
9816;DHT22;4947;44.526;11.360;2023-03-20T11:44:25;12.40;99.90
9816;DHT22;4947;44.526;11.360;2023-03-20T11:46:55;12.50;99.90
9816;DHT22;4947;44.526;11.360;2023-03-20T11:49:24;12.50;99.90
9816;DHT22;4947;44.526;11.360;2023-03-20T11:51:53;12.50;99.90
9816;DHT22;4947;44.526;11.360;2023-03-20T11:54:23;12.40;99.90
9816;DHT22;4947;44.526;11.360;2023-03-20T11:56:53;12.50;99.90
9816;DHT22;4947;44.526;11.360;2023-03-20T11:59:21;12.60;99.90
9816;DHT22;4947;44.526;11.360;2023-03-20T12:01:54;12.60;99.90
9816;DHT22;4947;44.526;11.360;2023-03-20T12:04:27;12.70;99.90
9816;DHT22;4947;44.526;11.360;2023-03-20T12:06:57;12.70;99.90
9816;DHT22;4947;44.526;11.360;2023-03-20T12:09:38;12.80;99.90
9816;DHT22;4947;44.526;11.360;2023-03-20T12:12:16;12.70;99.90
9816;DHT22;4947;44.526;11.360;2023-03-20T12:14:53;12.70;99.90
9816;DHT22;4947;44.526;11.360;2023-03-20T12:17:39;12.90;99.90
9816;DHT22;4947;44.526;11.360;2023-03-20T12:20:22;13.00;99.90
9816;DHT22;4947;44.526;11.360;2023-03-20T12:22:57;13.00;99.90
9816;DHT22;4947;44.526;11.360;2023-03-20T12:25:31;13.10;99.90
9816;DHT22;4947;44.526;11.360;2023-03-20T12:28:05;13.20;99.90
9816;DHT22;4947;44.526;11.360;2023-03-20T12:30:48;13.10;99.90
9816;DHT22;4947;44.526;11.360;2023-03-20T12:33:24;13.30;99.90
9816;DHT22;4947;44.526;11.360;2023-03-20T12:35:53;13.50;99.90
9816;DHT22;4947;44.526;11.360;2023-03-20T12:38:26;13.40;99.90
9816;DHT22;4947;44.526;11.360;2023-03-20T12:40:59;13.30;99.90
9816;DHT22;4947;44.526;11.360;2023-03-20T12:43:36;13.20;99.90
9816;DHT22;4947;44.526;11.360;2023-03-20T12:46:23;13.10;99.90
9816;DHT22;4947;44.526;11.360;2023-03-20T12:49:01;13.10;99.90
9816;DHT22;4947;44.526;11.360;2023-03-20T12:51:39;13.10;99.90
9816;DHT22;4947;44.526;11.360;2023-03-20T12:54:25;13.10;99.90
9816;DHT22;4947;44.526;11.360;2023-03-20T12:57:05;13.10;99.90
9816;DHT22;4947;44.526;11.360;2023-03-20T12:59:44;13.00;99.90
9816;DHT22;4947;44.526;11.360;2023-03-20T13:02:33;12.90;99.90
9816;DHT22;4947;44.526;11.360;2023-03-20T13:05:15;13.00;99.90
9816;DHT22;4947;44.526;11.360;2023-03-20T13:07:57;12.80;99.90
9816;DHT22;4947;44.526;11.360;2023-03-20T13:10:31;13.00;99.90
9816;DHT22;4947;44.526;11.360;2023-03-20T13:13:09;13.00;99.90
9816;DHT22;4947;44.526;11.360;2023-03-20T13:15:50;13.10;99.90
9816;DHT22;4947;44.526;11.360;2023-03-20T13:18:24;13.10;99.90
9816;DHT22;4947;44.526;11.360;2023-03-20T13:21:00;13.10;99.90
9816;DHT22;4947;44.526;11.360;2023-03-20T13:23:35;13.30;99.90
9816;DHT22;4947;44.526;11.360;2023-03-20T13:26:15;13.30;99.90
9816;DHT22;4947;44.526;11.360;2023-03-20T13:28:51;13.40;99.90
9816;DHT22;4947;44.526;11.360;2023-03-20T13:31:42;13.40;99.90
9816;DHT22;4947;44.526;11.360;2023-03-20T13:34:21;13.40;99.90
9816;DHT22;4947;44.526;11.360;2023-03-20T13:37:00;13.50;99.90
9816;DHT22;4947;44.526;11.360;2023-03-20T13:39:33;13.60;99.90
9816;DHT22;4947;44.526;11.360;2023-03-20T13:42:07;13.70;99.90
9816;DHT22;4947;44.526;11.360;2023-03-20T13:44:35;13.90;99.90
9816;DHT22;4947;44.526;11.360;2023-03-20T13:47:09;13.80;99.90
9816;DHT22;4947;44.526;11.360;2023-03-20T13:49:40;13.80;99.90
9816;DHT22;4947;44.526;11.360;2023-03-20T13:52:14;13.80;99.90
9816;DHT22;4947;44.526;11.360;2023-03-20T13:54:55;13.70;99.90
9816;DHT22;4947;44.526;11.360;2023-03-20T13:57:38;13.80;99.90
9816;DHT22;4947;44.526;11.360;2023-03-20T14:00:20;13.80;99.90
9816;DHT22;4947;44.526;11.360;2023-03-20T14:03:16;14.00;99.90
9816;DHT22;4947;44.526;11.360;2023-03-20T14:05:45;14.10;99.90
9816;DHT22;4947;44.526;11.360;2023-03-20T14:08:31;14.10;99.90
9816;DHT22;4947;44.526;11.360;2023-03-20T14:11:11;14.10;99.90
9816;DHT22;4947;44.526;11.360;2023-03-20T14:13:44;14.20;99.90
9816;DHT22;4947;44.526;11.360;2023-03-20T14:16:15;14.20;99.90
9816;DHT22;4947;44.526;11.360;2023-03-20T14:18:46;14.40;99.90
9816;DHT22;4947;44.526;11.360;2023-03-20T14:21:17;14.40;99.90
9816;DHT22;4947;44.526;11.360;2023-03-20T14:23:49;14.40;99.90
9816;DHT22;4947;44.526;11.360;2023-03-20T14:26:20;14.50;99.90
9816;DHT22;4947;44.526;11.360;2023-03-20T14:28:55;14.80;99.90
9816;DHT22;4947;44.526;11.360;2023-03-20T14:31:27;15.00;99.90
9816;DHT22;4947;44.526;11.360;2023-03-20T14:34:14;15.10;99.90
9816;DHT22;4947;44.526;11.360;2023-03-20T14:36:50;15.10;99.90
9816;DHT22;4947;44.526;11.360;2023-03-20T14:39:28;15.00;99.90
9816;DHT22;4947;44.526;11.360;2023-03-20T14:42:02;14.90;99.90
9816;DHT22;4947;44.526;11.360;2023-03-20T14:44:43;14.90;99.90
9816;DHT22;4947;44.526;11.360;2023-03-20T14:47:21;14.70;99.90
9816;DHT22;4947;44.526;11.360;2023-03-20T14:49:54;14.70;99.90
9816;DHT22;4947;44.526;11.360;2023-03-20T14:52:33;14.70;99.90
9816;DHT22;4947;44.526;11.360;2023-03-20T14:55:35;14.70;99.90
9816;DHT22;4947;44.526;11.360;2023-03-20T14:58:34;14.80;99.90
9816;DHT22;4947;44.526;11.360;2023-03-20T15:01:06;14.70;99.90
9816;DHT22;4947;44.526;11.360;2023-03-20T15:03:36;14.80;99.90
9816;DHT22;4947;44.526;11.360;2023-03-20T15:06:07;14.70;99.90
9816;DHT22;4947;44.526;11.360;2023-03-20T15:08:41;14.70;99.90
9816;DHT22;4947;44.526;11.360;2023-03-20T15:11:13;14.80;99.90
9816;DHT22;4947;44.526;11.360;2023-03-20T15:13:42;14.80;99.90
9816;DHT22;4947;44.526;11.360;2023-03-20T15:16:12;14.70;99.90
9816;DHT22;4947;44.526;11.360;2023-03-20T15:18:41;14.80;99.90
9816;DHT22;4947;44.526;11.360;2023-03-20T15:21:13;14.80;99.90
9816;DHT22;4947;44.526;11.360;2023-03-20T15:23:42;14.90;99.90
9816;DHT22;4947;44.526;11.360;2023-03-20T15:26:13;14.90;99.90
9816;DHT22;4947;44.526;11.360;2023-03-20T15:28:42;14.90;99.90
9816;DHT22;4947;44.526;11.360;2023-03-20T15:31:20;14.90;99.90
9816;DHT22;4947;44.526;11.360;2023-03-20T15:33:50;15.00;99.90
9816;DHT22;4947;44.526;11.360;2023-03-20T15:36:20;15.00;99.90
9816;DHT22;4947;44.526;11.360;2023-03-20T15:38:48;15.00;99.90
9816;DHT22;4947;44.526;11.360;2023-03-20T15:41:26;14.90;99.90
9816;DHT22;4947;44.526;11.360;2023-03-20T15:44:02;15.00;99.90
9816;DHT22;4947;44.526;11.360;2023-03-20T15:46:29;14.90;99.90
9816;DHT22;4947;44.526;11.360;2023-03-20T15:48:57;14.90;99.90
9816;DHT22;4947;44.526;11.360;2023-03-20T15:51:25;14.90;99.90
9816;DHT22;4947;44.526;11.360;2023-03-20T15:53:54;14.80;99.90
9816;DHT22;4947;44.526;11.360;2023-03-20T15:56:26;14.60;99.90
9816;DHT22;4947;44.526;11.360;2023-03-20T15:58:55;14.70;99.90
9816;DHT22;4947;44.526;11.360;2023-03-20T16:01:31;14.60;99.90
9816;DHT22;4947;44.526;11.360;2023-03-20T16:03:58;14.60;99.90
9816;DHT22;4947;44.526;11.360;2023-03-20T16:06:26;14.60;99.90
9816;DHT22;4947;44.526;11.360;2023-03-20T16:08:59;14.50;99.90
9816;DHT22;4947;44.526;11.360;2023-03-20T16:11:37;14.40;99.90
9816;DHT22;4947;44.526;11.360;2023-03-20T16:14:05;14.30;99.90
9816;DHT22;4947;44.526;11.360;2023-03-20T16:16:33;14.10;99.90
9816;DHT22;4947;44.526;11.360;2023-03-20T16:19:03;14.10;99.90
9816;DHT22;4947;44.526;11.360;2023-03-20T16:21:32;14.00;99.90